Time;durP1;ratioP1;P1;durP2;ratioP2;P2;SDS_P1;SDS_P2;PMS_P1;PMS_P2;Temp;Humidity;BMP_temperature;BMP_pressure;BME280_temperature;BME280_humidity;BME280_pressure;Samples;Min_cycle;Max_cycle;Signal;HPM_P1;HPM_P2
2021/03/07 00:00:59;;;;;;;37.20;22.80;;;;;;;;;;5020549;28;20440;-34
2021/03/07 00:03:46;;;;;;;37.57;23.10;;;;;;;;;;5020148;28;20531;-34
2021/03/07 00:06:34;;;;;;;37.57;22.97;;;;;;;;;;5020163;28;20484;-37
2021/03/07 00:09:21;;;;;;;40.63;23.60;;;;;;;;;;5020061;28;20441;-35
2021/03/07 00:12:07;;;;;;;47.60;24.97;;;;;;;;;;5019821;28;20539;-37
2021/03/07 00:14:53;;;;;;;49.60;26.00;;;;;;;;;;5020080;28;20604;-35
2021/03/07 00:17:40;;;;;;;50.83;25.37;;;;;;;;;;5019973;28;20745;-35
2021/03/07 00:20:26;;;;;;;44.67;24.70;;;;;;;;;;5020019;28;20460;-37
2021/03/07 00:23:12;;;;;;;39.40;22.03;;;;;;;;;;5019880;28;20444;-34
2021/03/07 00:26:04;;;;;;;46.57;22.47;;;;;;;;;;5019595;28;20495;-38
2021/03/07 00:28:54;;;;;;;33.97;20.80;;;;;;;;;;5019675;28;20449;-35
2021/03/07 00:31:42;;;;;;;37.80;21.47;;;;;;;;;;5019714;28;20926;-35
2021/03/07 00:34:28;;;;;;;37.50;21.57;;;;;;;;;;5019655;28;20926;-37
2021/03/07 00:37:17;;;;;;;39.83;22.67;;;;;;;;;;5019534;28;20465;-33
2021/03/07 00:40:09;;;;;;;34.97;21.13;;;;;;;;;;5019556;28;20449;-34
2021/03/07 00:42:56;;;;;;;32.43;19.67;;;;;;;;;;5020009;28;20519;-34
2021/03/07 00:45:42;;;;;;;33.53;20.50;;;;;;;;;;5019160;28;20480;-34
2021/03/07 00:48:29;;;;;;;32.23;19.83;;;;;;;;;;5019086;28;20488;-36
2021/03/07 00:51:15;;;;;;;31.20;20.00;;;;;;;;;;5019477;28;20536;-34
2021/03/07 00:54:01;;;;;;;29.27;18.80;;;;;;;;;;5019408;28;20449;-34
2021/03/07 00:56:50;;;;;;;23.43;17.80;;;;;;;;;;5018213;28;20449;-32
2021/03/07 00:59:37;;;;;;;29.67;18.97;;;;;;;;;;5019261;28;20445;-32
2021/03/07 01:02:28;;;;;;;27.00;18.83;;;;;;;;;;5018958;28;20519;-34
2021/03/07 01:05:15;;;;;;;28.10;18.17;;;;;;;;;;5019246;28;20631;-33
2021/03/07 01:08:01;;;;;;;29.60;19.03;;;;;;;;;;5018861;28;20452;-36
2021/03/07 01:10:50;;;;;;;26.37;18.07;;;;;;;;;;5019229;28;20728;-36
2021/03/07 01:13:37;;;;;;;25.27;18.17;;;;;;;;;;5018834;28;20480;-34
2021/03/07 01:16:24;;;;;;;27.43;18.90;;;;;;;;;;5018662;28;20874;-37
2021/03/07 01:19:11;;;;;;;26.63;18.93;;;;;;;;;;5018805;28;20461;-35
2021/03/07 01:21:57;;;;;;;26.77;18.60;;;;;;;;;;5018907;28;20441;-37
2021/03/07 01:24:43;;;;;;;26.10;18.63;;;;;;;;;;5018430;28;20729;-33
2021/03/07 01:27:29;;;;;;;26.80;18.73;;;;;;;;;;5018269;28;20445;-34
2021/03/07 01:30:16;;;;;;;25.53;17.60;;;;;;;;;;5018470;28;20873;-33
2021/03/07 01:33:05;;;;;;;25.00;17.83;;;;;;;;;;5018601;28;20507;-36
2021/03/07 01:35:51;;;;;;;29.40;18.67;;;;;;;;;;5017996;28;20432;-35
2021/03/07 01:38:40;;;;;;;24.03;18.50;;;;;;;;;;5018261;28;20511;-35
2021/03/07 01:41:25;;;;;;;29.00;19.23;;;;;;;;;;5018789;28;20500;-32
2021/03/07 01:44:11;;;;;;;27.17;18.10;;;;;;;;;;5018548;28;20971;-34
2021/03/07 01:46:57;;;;;;;29.47;19.70;;;;;;;;;;5018151;28;20445;-35
2021/03/07 01:49:45;;;;;;;28.43;20.17;;;;;;;;;;5017970;28;20445;-35
2021/03/07 01:52:30;;;;;;;27.77;18.87;;;;;;;;;;5018234;28;20890;-32
2021/03/07 01:55:17;;;;;;;28.47;20.10;;;;;;;;;;5018341;28;20539;-35
2021/03/07 01:58:06;;;;;;;29.30;19.97;;;;;;;;;;5018145;28;20603;-34
2021/03/07 02:00:52;;;;;;;27.53;20.27;;;;;;;;;;5017806;28;20448;-34
2021/03/07 02:03:48;;;;;;;28.10;19.60;;;;;;;;;;5017785;28;20448;-34
2021/03/07 02:06:35;;;;;;;26.93;18.27;;;;;;;;;;5017669;28;20479;-35
2021/03/07 02:09:21;;;;;;;27.73;19.33;;;;;;;;;;5017728;28;20947;-38
2021/03/07 02:12:08;;;;;;;26.83;20.30;;;;;;;;;;5017646;28;20451;-35
2021/03/07 02:14:59;;;;;;;28.47;19.97;;;;;;;;;;5017643;28;20440;-34
2021/03/07 02:17:46;;;;;;;25.70;19.03;;;;;;;;;;5017637;28;20879;-35
2021/03/07 02:20:32;;;;;;;29.80;18.80;;;;;;;;;;5017466;28;20857;-37
2021/03/07 02:23:21;;;;;;;27.07;19.70;;;;;;;;;;5017102;28;20519;-37
2021/03/07 02:26:08;;;;;;;28.17;19.27;;;;;;;;;;5016557;28;20489;-36
2021/03/07 02:28:53;;;;;;;23.97;18.70;;;;;;;;;;5016596;28;20444;-34
2021/03/07 02:31:41;;;;;;;28.47;20.33;;;;;;;;;;5016757;28;20452;-37
2021/03/07 02:34:30;;;;;;;29.33;19.10;;;;;;;;;;5016850;28;20529;-34
2021/03/07 02:37:19;;;;;;;24.80;18.13;;;;;;;;;;5017060;28;20445;-35
2021/03/07 02:40:06;;;;;;;26.40;18.70;;;;;;;;;;5016650;28;20468;-35
2021/03/07 02:42:57;;;;;;;28.20;19.33;;;;;;;;;;5016685;28;20519;-34
2021/03/07 02:45:44;;;;;;;27.30;19.03;;;;;;;;;;5017210;28;20551;-33
2021/03/07 02:48:30;;;;;;;26.67;19.20;;;;;;;;;;5016526;28;20449;-35
2021/03/07 02:51:16;;;;;;;23.10;17.50;;;;;;;;;;5017268;28;20539;-33
2021/03/07 02:54:05;;;;;;;25.33;17.40;;;;;;;;;;5017183;28;20535;-35
2021/03/07 02:56:51;;;;;;;25.53;19.20;;;;;;;;;;5017194;28;20735;-34
2021/03/07 02:59:41;;;;;;;29.37;20.03;;;;;;;;;;5017019;28;20604;-34
2021/03/07 03:02:29;;;;;;;24.97;18.30;;;;;;;;;;5017262;28;20604;-33
2021/03/07 03:05:16;;;;;;;25.13;17.97;;;;;;;;;;5017700;28;20530;-36
2021/03/07 03:08:02;;;;;;;29.23;19.40;;;;;;;;;;5017200;28;20444;-33
2021/03/07 03:10:51;;;;;;;26.77;19.10;;;;;;;;;;5017140;28;20750;-32
2021/03/07 03:13:49;;;;;;;28.37;19.53;;;;;;;;;;5017208;28;20627;-37
2021/03/07 03:16:38;;;;;;;27.00;19.00;;;;;;;;;;5017105;28;20448;-36
2021/03/07 03:19:26;;;;;;;32.00;19.93;;;;;;;;;;5018988;28;20448;-37
2021/03/07 03:22:11;;;;;;;27.57;19.43;;;;;;;;;;5021064;28;20878;-34
2021/03/07 03:24:58;;;;;;;30.40;20.47;;;;;;;;;;5021019;28;20444;-32
2021/03/07 03:27:44;;;;;;;25.27;18.90;;;;;;;;;;5021032;28;20452;-36
2021/03/07 03:30:30;;;;;;;28.70;19.50;;;;;;;;;;5020875;28;20448;-32
2021/03/07 03:33:17;;;;;;;25.53;19.13;;;;;;;;;;5020633;28;20448;-35
2021/03/07 03:36:07;;;;;;;26.10;19.13;;;;;;;;;;5018561;28;21627;-36
2021/03/07 03:38:58;;;;;;;26.97;18.53;;;;;;;;;;5001957;28;20872;-35
2021/03/07 03:41:46;;;;;;;23.73;18.70;;;;;;;;;;5001247;28;20449;-36
2021/03/07 03:44:33;;;;;;;27.53;19.73;;;;;;;;;;5001095;28;20537;-38
2021/03/07 03:47:20;;;;;;;26.43;19.37;;;;;;;;;;5001219;28;20458;-35
2021/03/07 03:50:08;;;;;;;25.47;19.43;;;;;;;;;;5000678;28;20445;-32
2021/03/07 03:52:55;;;;;;;23.57;18.70;;;;;;;;;;5000827;28;20880;-36
2021/03/07 03:55:43;;;;;;;26.93;19.77;;;;;;;;;;5000697;28;20437;-33
2021/03/07 03:58:32;;;;;;;27.57;18.53;;;;;;;;;;5000576;28;20714;-34
2021/03/07 04:01:19;;;;;;;28.03;17.60;;;;;;;;;;5001040;28;20485;-37
2021/03/07 04:04:07;;;;;;;27.20;18.00;;;;;;;;;;5000872;28;20442;-35
2021/03/07 04:06:54;;;;;;;25.50;18.83;;;;;;;;;;5000846;28;20481;-37
2021/03/07 04:09:41;;;;;;;22.67;17.10;;;;;;;;;;5000297;28;20452;-33
2021/03/07 04:12:27;;;;;;;28.60;18.97;;;;;;;;;;5000294;28;20636;-35
2021/03/07 04:15:18;;;;;;;23.07;16.93;;;;;;;;;;5000489;28;20446;-34
2021/03/07 04:18:04;;;;;;;29.47;18.77;;;;;;;;;;5000537;28;20449;-37
2021/03/07 04:20:51;;;;;;;25.07;18.07;;;;;;;;;;5000353;28;20441;-36
2021/03/07 04:23:38;;;;;;;28.97;19.47;;;;;;;;;;5000262;28;20716;-32
2021/03/07 04:26:24;;;;;;;28.93;19.00;;;;;;;;;;5000424;28;20608;-34
2021/03/07 04:29:09;;;;;;;26.43;18.17;;;;;;;;;;4999877;28;20632;-35
2021/03/07 04:31:56;;;;;;;25.17;19.27;;;;;;;;;;5000260;28;20861;-33
2021/03/07 04:34:43;;;;;;;27.20;19.27;;;;;;;;;;4999785;28;20440;-33
2021/03/07 04:37:30;;;;;;;24.43;19.30;;;;;;;;;;5000078;28;20446;-36
2021/03/07 04:40:16;;;;;;;25.37;18.73;;;;;;;;;;4999881;28;20460;-34
2021/03/07 04:43:03;;;;;;;26.70;17.93;;;;;;;;;;5000139;28;20442;-38
2021/03/07 04:45:50;;;;;;;26.97;19.20;;;;;;;;;;5000055;28;20480;-36
2021/03/07 04:48:37;;;;;;;26.90;18.80;;;;;;;;;;5000071;28;20509;-35
2021/03/07 04:51:22;;;;;;;26.13;19.40;;;;;;;;;;4999186;28;20868;-34
2021/03/07 04:54:09;;;;;;;25.10;18.73;;;;;;;;;;4999468;28;20453;-34
2021/03/07 04:56:55;;;;;;;26.77;19.23;;;;;;;;;;4999735;28;20442;-31
2021/03/07 04:59:41;;;;;;;27.20;19.50;;;;;;;;;;4999792;28;20741;-37
2021/03/07 05:02:27;;;;;;;27.50;19.30;;;;;;;;;;4999133;28;20471;-34
2021/03/07 05:05:14;;;;;;;24.77;18.50;;;;;;;;;;4998215;28;20533;-36
2021/03/07 05:08:00;;;;;;;27.47;18.90;;;;;;;;;;4999191;28;20442;-32
2021/03/07 05:10:47;;;;;;;25.47;19.17;;;;;;;;;;4998897;28;20442;-32
2021/03/07 05:13:34;;;;;;;26.60;20.17;;;;;;;;;;4998899;28;20644;-37
2021/03/07 05:16:20;;;;;;;29.50;20.80;;;;;;;;;;4999092;28;20449;-38
2021/03/07 05:19:08;;;;;;;28.83;18.87;;;;;;;;;;4998821;28;20458;-35
2021/03/07 05:21:54;;;;;;;29.73;18.83;;;;;;;;;;4998859;28;20461;-34
2021/03/07 05:24:40;;;;;;;30.37;20.40;;;;;;;;;;4998722;28;20621;-35
2021/03/07 05:27:25;;;;;;;23.67;18.83;;;;;;;;;;4998569;28;20557;-34
2021/03/07 05:30:13;;;;;;;26.23;19.87;;;;;;;;;;4998593;28;20454;-36
2021/03/07 05:33:00;;;;;;;25.70;18.37;;;;;;;;;;4998708;28;20453;-34
2021/03/07 05:35:48;;;;;;;32.73;21.83;;;;;;;;;;4998569;28;20920;-39
2021/03/07 05:38:34;;;;;;;25.50;19.30;;;;;;;;;;4998593;28;20509;-36
2021/03/07 05:41:20;;;;;;;31.53;20.27;;;;;;;;;;4998030;28;20793;-33
2021/03/07 05:44:07;;;;;;;27.20;20.30;;;;;;;;;;4998562;28;20517;-37
2021/03/07 05:46:53;;;;;;;32.67;20.50;;;;;;;;;;4998354;28;20497;-37
2021/03/07 05:49:40;;;;;;;30.37;20.63;;;;;;;;;;4998201;28;20530;-34
2021/03/07 05:52:26;;;;;;;31.07;20.73;;;;;;;;;;4997989;28;20731;-36
2021/03/07 05:55:12;;;;;;;29.33;20.67;;;;;;;;;;4998555;28;20453;-35
2021/03/07 05:57:59;;;;;;;26.17;20.23;;;;;;;;;;4997966;28;20525;-33
2021/03/07 06:00:45;;;;;;;28.37;19.57;;;;;;;;;;4998368;28;20449;-34
2021/03/07 06:03:32;;;;;;;28.43;20.73;;;;;;;;;;4998137;28;20753;-39
2021/03/07 06:06:18;;;;;;;31.67;22.50;;;;;;;;;;4998190;28;20493;-39
2021/03/07 06:09:21;;;;;;;25.43;19.73;;;;;;;;;;4998073;28;20442;-38
2021/03/07 06:12:14;;;;;;;27.13;20.87;;;;;;;;;;4997780;28;20526;-38
2021/03/07 06:15:00;;;;;;;27.53;20.67;;;;;;;;;;4997777;28;20872;-40
2021/03/07 06:17:48;;;;;;;28.63;21.53;;;;;;;;;;4997752;28;20904;-40
2021/03/07 06:20:35;;;;;;;27.80;20.47;;;;;;;;;;4998274;28;20441;-39
2021/03/07 06:23:33;;;;;;;28.07;20.13;;;;;;;;;;4998183;28;20437;-38
2021/03/07 06:26:19;;;;;;;27.97;21.53;;;;;;;;;;4998193;28;20536;-37
2021/03/07 06:29:09;;;;;;;27.50;22.07;;;;;;;;;;4998243;28;20513;-40
2021/03/07 06:31:54;;;;;;;30.53;22.57;;;;;;;;;;4997850;28;20441;-37
2021/03/07 06:34:48;;;;;;;31.43;23.00;;;;;;;;;;4997774;28;20514;-37
2021/03/07 06:37:50;;;;;;;28.70;22.43;;;;;;;;;;4997062;28;20497;-36
2021/03/07 06:40:39;;;;;;;26.03;20.97;;;;;;;;;;4998196;28;20545;-37
2021/03/07 06:43:25;;;;;;;27.50;20.70;;;;;;;;;;4998087;28;20728;-40
2021/03/07 06:46:30;;;;;;;25.17;19.47;;;;;;;;;;4997677;28;20499;-36
2021/03/07 06:49:21;;;;;;;26.83;19.33;;;;;;;;;;4997812;28;20449;-41
2021/03/07 06:52:14;;;;;;;23.93;20.03;;;;;;;;;;4997173;28;20457;-35
2021/03/07 06:55:02;;;;;;;30.43;23.20;;;;;;;;;;4997491;28;20581;-39
2021/03/07 06:57:48;;;;;;;25.87;21.80;;;;;;;;;;4997218;28;20458;-40
2021/03/07 07:00:38;;;;;;;27.03;21.77;;;;;;;;;;4997608;28;20449;-41
2021/03/07 07:03:24;;;;;;;31.60;21.87;;;;;;;;;;4997348;28;20461;-37
2021/03/07 07:06:14;;;;;;;25.97;22.00;;;;;;;;;;4997595;28;20787;-41
2021/03/07 07:09:00;;;;;;;26.50;22.17;;;;;;;;;;4997508;28;20744;-39
2021/03/07 07:11:47;;;;;;;29.53;22.80;;;;;;;;;;4997530;28;20441;-38
2021/03/07 07:14:38;;;;;;;30.83;22.80;;;;;;;;;;4997553;28;20955;-38
2021/03/07 07:17:26;;;;;;;25.07;21.17;;;;;;;;;;4997086;28;20489;-38
2021/03/07 07:20:15;;;;;;;26.30;22.43;;;;;;;;;;4997257;28;20598;-38
2021/03/07 07:23:01;;;;;;;31.30;23.93;;;;;;;;;;4997248;28;20537;-39
2021/03/07 07:25:48;;;;;;;29.83;23.87;;;;;;;;;;4997175;28;20445;-41
2021/03/07 07:28:35;;;;;;;32.73;24.73;;;;;;;;;;4997435;28;20832;-33
2021/03/07 07:31:23;;;;;;;28.30;23.13;;;;;;;;;;4996579;28;20733;-39
2021/03/07 07:34:10;;;;;;;29.40;22.47;;;;;;;;;;4997429;28;20445;-41
2021/03/07 07:37:00;;;;;;;29.27;22.90;;;;;;;;;;5005720;28;20483;-40
2021/03/07 07:39:50;;;;;;;28.27;24.73;;;;;;;;;;5016871;28;20456;-40
2021/03/07 07:42:37;;;;;;;34.43;23.47;;;;;;;;;;5016617;28;20516;-38
2021/03/07 07:45:25;;;;;;;29.57;22.90;;;;;;;;;;5017071;28;20921;-38
2021/03/07 07:48:10;;;;;;;32.30;23.67;;;;;;;;;;5016572;28;20437;-39
2021/03/07 07:50:57;;;;;;;34.13;23.43;;;;;;;;;;5016482;28;20445;-35
2021/03/07 07:53:43;;;;;;;29.90;22.40;;;;;;;;;;5016375;28;20473;-37
2021/03/07 07:56:41;;;;;;;26.20;21.70;;;;;;;;;;5016867;28;20764;-39
2021/03/07 07:59:42;;;;;;;24.77;20.83;;;;;;;;;;5016941;28;20448;-38
2021/03/07 08:02:45;;;;;;;34.00;22.77;;;;;;;;;;5016296;28;20538;-35
2021/03/07 08:05:45;;;;;;;31.03;22.80;;;;;;;;;;5018774;28;20883;-37
2021/03/07 08:08:38;;;;;;;31.13;22.20;;;;;;;;;;5020068;28;20612;-37
2021/03/07 08:11:30;;;;;;;29.93;21.03;;;;;;;;;;5020879;28;20444;-39
2021/03/07 08:14:34;;;;;;;26.57;20.33;;;;;;;;;;5019898;28;20893;-35
2021/03/07 08:17:52;;;;;;;28.83;22.23;;;;;;;;;;5019774;28;20957;-32
2021/03/07 08:20:56;;;;;;;24.37;20.87;;;;;;;;;;5020255;28;20970;-38
2021/03/07 08:24:03;;;;;;;26.50;20.40;;;;;;;;;;5020113;28;20515;-37
2021/03/07 08:26:57;;;;;;;22.30;19.10;;;;;;;;;;5019782;28;20504;-39
2021/03/07 08:29:48;;;;;;;22.93;19.13;;;;;;;;;;5019756;28;20444;-34
2021/03/07 08:32:38;;;;;;;21.63;16.57;;;;;;;;;;5019287;28;20353;-35
2021/03/07 08:35:25;;;;;;;19.07;16.83;;;;;;;;;;5019243;28;20218;-36
2021/03/07 08:38:12;;;;;;;16.10;14.23;;;;;;;;;;5019650;28;20287;-38
2021/03/07 08:41:00;;;;;;;12.40;11.07;;;;;;;;;;5019809;28;20206;-35
2021/03/07 08:43:48;;;;;;;19.10;12.63;;;;;;;;;;5019834;28;20586;-36
2021/03/07 08:46:49;;;;;;;14.43;11.67;;;;;;;;;;5019258;28;20257;-36
2021/03/07 08:49:35;;;;;;;15.83;12.77;;;;;;;;;;5019594;28;20202;-37
2021/03/07 08:52:22;;;;;;;14.27;12.77;;;;;;;;;;5019375;28;20200;-36
2021/03/07 08:55:11;;;;;;;17.43;11.90;;;;;;;;;;5019296;28;20300;-37
2021/03/07 08:57:58;;;;;;;17.47;13.33;;;;;;;;;;5018809;28;20226;-38
2021/03/07 09:00:44;;;;;;;12.90;11.17;;;;;;;;;;5019314;28;20254;-36
2021/03/07 09:03:38;;;;;;;19.47;16.17;;;;;;;;;;5018972;28;20209;-38
2021/03/07 09:06:27;;;;;;;19.77;16.27;;;;;;;;;;5019109;28;20202;-39
2021/03/07 09:09:14;;;;;;;21.80;16.03;;;;;;;;;;5017869;28;20197;-40
2021/03/07 09:12:01;;;;;;;17.77;14.80;;;;;;;;;;5017650;28;20205;-40
2021/03/07 09:14:48;;;;;;;21.80;15.50;;;;;;;;;;5018712;28;20304;-39
2021/03/07 09:17:35;;;;;;;19.67;15.40;;;;;;;;;;5017071;28;20229;-37
2021/03/07 09:20:21;;;;;;;19.23;14.90;;;;;;;;;;5018237;28;20487;-38
2021/03/07 09:23:07;;;;;;;20.23;15.30;;;;;;;;;;5018501;28;20197;-35
2021/03/07 09:25:53;;;;;;;24.30;17.23;;;;;;;;;;5018816;28;20205;-36
2021/03/07 09:28:43;;;;;;;18.53;16.40;;;;;;;;;;5018598;28;20198;-38
2021/03/07 09:31:34;;;;;;;19.63;15.53;;;;;;;;;;5018413;28;20202;-36
2021/03/07 09:34:30;;;;;;;20.63;15.07;;;;;;;;;;5017951;28;20596;-38
2021/03/07 09:37:17;;;;;;;18.97;15.27;;;;;;;;;;5017912;28;20233;-36
2021/03/07 09:40:10;;;;;;;14.87;12.77;;;;;;;;;;5018135;28;20588;-37
2021/03/07 09:42:57;;;;;;;16.57;14.33;;;;;;;;;;5018295;28;20304;-39
2021/03/07 09:45:45;;;;;;;10.50;8.20;;;;;;;;;;5018439;28;20217;-41
2021/03/07 09:48:43;;;;;;;13.20;8.10;;;;;;;;;;5018013;28;20207;-39
2021/03/07 09:51:31;;;;;;;10.67;9.43;;;;;;;;;;5017359;28;20210;-36
2021/03/07 09:54:20;;;;;;;11.10;9.97;;;;;;;;;;5017951;28;20309;-40
2021/03/07 09:57:08;;;;;;;12.57;9.20;;;;;;;;;;5017996;28;20217;-41
2021/03/07 09:59:54;;;;;;;9.50;8.00;;;;;;;;;;5017924;28;20202;-40
2021/03/07 10:02:42;;;;;;;10.07;9.03;;;;;;;;;;5018261;28;20198;-40
2021/03/07 10:05:30;;;;;;;11.70;10.30;;;;;;;;;;5018169;28;20345;-40
2021/03/07 10:08:22;;;;;;;14.63;9.63;;;;;;;;;;5017834;28;20198;-37
2021/03/07 10:11:26;;;;;;;13.30;9.03;;;;;;;;;;5018229;28;20218;-40
2021/03/07 10:14:12;;;;;;;11.20;7.83;;;;;;;;;;5017565;28;20236;-39
2021/03/07 10:17:00;;;;;;;10.00;8.73;;;;;;;;;;5017286;28;20628;-39
2021/03/07 10:19:51;;;;;;;11.63;7.37;;;;;;;;;;5017524;28;20596;-39
2021/03/07 10:22:40;;;;;;;8.10;6.80;;;;;;;;;;5017817;28;20213;-38
2021/03/07 10:25:27;;;;;;;8.33;6.97;;;;;;;;;;5017678;28;20296;-40
2021/03/07 10:28:21;;;;;;;8.13;6.00;;;;;;;;;;5017400;28;20194;-40
2021/03/07 10:31:08;;;;;;;6.23;5.03;;;;;;;;;;5017763;28;20199;-37
2021/03/07 10:33:54;;;;;;;5.37;4.87;;;;;;;;;;5017594;28;20203;-36
2021/03/07 10:36:44;;;;;;;4.77;4.37;;;;;;;;;;5017298;28;20241;-39
2021/03/07 10:39:31;;;;;;;7.23;4.33;;;;;;;;;;5016940;28;20681;-39
2021/03/07 10:42:22;;;;;;;7.10;4.13;;;;;;;;;;5017245;28;20210;-38
2021/03/07 10:45:12;;;;;;;6.30;3.77;;;;;;;;;;5017008;28;20217;-35
2021/03/07 10:47:59;;;;;;;3.73;3.40;;;;;;;;;;5016838;28;20197;-40
2021/03/07 10:50:49;;;;;;;4.73;3.23;;;;;;;;;;5017188;28;20480;-39
2021/03/07 10:53:35;;;;;;;4.70;3.43;;;;;;;;;;5017100;28;20197;-36
2021/03/07 10:56:27;;;;;;;2.73;2.53;;;;;;;;;;5017055;28;20323;-37
2021/03/07 10:59:16;;;;;;;2.97;2.77;;;;;;;;;;5017206;28;20202;-37
2021/03/07 11:02:04;;;;;;;4.03;2.97;;;;;;;;;;5016916;28;20201;-37
2021/03/07 11:04:50;;;;;;;7.37;2.70;;;;;;;;;;5016916;28;20253;-37
2021/03/07 11:07:36;;;;;;;3.83;2.50;;;;;;;;;;5017229;28;20198;-36
2021/03/07 11:10:24;;;;;;;3.20;2.80;;;;;;;;;;5017929;28;20339;-39
2021/03/07 11:13:12;;;;;;;3.27;2.97;;;;;;;;;;5017578;28;20251;-33
2021/03/07 11:15:58;;;;;;;3.90;2.83;;;;;;;;;;5017464;28;20582;-39
2021/03/07 11:18:44;;;;;;;3.67;2.27;;;;;;;;;;5016826;28;20204;-38
2021/03/07 11:21:30;;;;;;;2.47;2.23;;;;;;;;;;5017065;28;20199;-37
2021/03/07 11:24:18;;;;;;;4.03;2.67;;;;;;;;;;5016942;28;20491;-40
2021/03/07 11:27:04;;;;;;;4.00;2.20;;;;;;;;;;5016822;28;20193;-36
2021/03/07 11:29:51;;;;;;;2.07;1.93;;;;;;;;;;5016891;28;20201;-40
2021/03/07 11:32:39;;;;;;;3.27;2.13;;;;;;;;;;5016535;28;20627;-38
2021/03/07 11:35:26;;;;;;;3.33;2.30;;;;;;;;;;5016490;28;20601;-37
2021/03/07 11:38:12;;;;;;;1.93;1.83;;;;;;;;;;5016298;28;20230;-36
2021/03/07 11:40:59;;;;;;;3.23;1.90;;;;;;;;;;5019994;28;20379;-36
2021/03/07 11:43:44;;;;;;;2.20;2.00;;;;;;;;;;5020496;28;20575;-38
2021/03/07 11:46:34;;;;;;;2.40;2.20;;;;;;;;;;5020962;28;20257;-39
2021/03/07 11:49:21;;;;;;;2.40;1.90;;;;;;;;;;5020610;28;20209;-37
2021/03/07 11:52:09;;;;;;;1.93;1.80;;;;;;;;;;5020332;28;20272;-37
2021/03/07 11:54:58;;;;;;;2.63;1.83;;;;;;;;;;5020838;28;20197;-38
2021/03/07 11:57:44;;;;;;;1.87;1.77;;;;;;;;;;5020499;28;20328;-38
2021/03/07 12:00:30;;;;;;;3.73;1.70;;;;;;;;;;5020365;28;20201;-35
2021/03/07 12:03:22;;;;;;;3.63;2.10;;;;;;;;;;5020114;28;20635;-39
2021/03/07 12:06:07;;;;;;;3.63;1.90;;;;;;;;;;5020926;28;20311;-40
2021/03/07 12:08:56;;;;;;;5.00;2.00;;;;;;;;;;5020603;28;20414;-40
2021/03/07 12:11:42;;;;;;;2.10;2.00;;;;;;;;;;5019819;28;20196;-39
2021/03/07 12:14:29;;;;;;;3.43;1.90;;;;;;;;;;5020034;28;20332;-34
2021/03/07 12:17:15;;;;;;;3.73;2.10;;;;;;;;;;5019862;28;20222;-37
2021/03/07 12:20:21;;;;;;;1.83;1.73;;;;;;;;;;5019987;28;20201;-40
2021/03/07 12:23:08;;;;;;;2.33;1.90;;;;;;;;;;5019604;28;20499;-41
2021/03/07 12:25:57;;;;;;;4.73;1.93;;;;;;;;;;5020092;28;20206;-38
2021/03/07 12:28:46;;;;;;;2.00;1.90;;;;;;;;;;5019523;28;20618;-39
2021/03/07 12:31:35;;;;;;;2.30;1.80;;;;;;;;;;5019919;28;20202;-39
2021/03/07 12:34:21;;;;;;;2.17;2.07;;;;;;;;;;5019486;28;20318;-40
2021/03/07 12:37:08;;;;;;;2.37;1.87;;;;;;;;;;5019630;28;20502;-36
2021/03/07 12:39:54;;;;;;;2.97;1.67;;;;;;;;;;5019466;28;20245;-38
2021/03/07 12:42:45;;;;;;;2.20;2.00;;;;;;;;;;5019693;28;20300;-41
2021/03/07 12:45:31;;;;;;;3.60;2.43;;;;;;;;;;5019540;28;20197;-40
2021/03/07 12:48:18;;;;;;;2.70;2.00;;;;;;;;;;5019391;28;20485;-37
2021/03/07 12:51:17;;;;;;;3.30;1.90;;;;;;;;;;5018726;28;20216;-39
2021/03/07 12:54:05;;;;;;;1.90;1.80;;;;;;;;;;5018464;28;20298;-35
2021/03/07 12:56:52;;;;;;;2.30;2.10;;;;;;;;;;5018551;28;20358;-35
2021/03/07 12:59:38;;;;;;;2.33;2.17;;;;;;;;;;5011987;28;20632;-39
2021/03/07 13:02:24;;;;;;;2.83;1.83;;;;;;;;;;5018306;28;20206;-39
2021/03/07 13:05:11;;;;;;;2.50;1.90;;;;;;;;;;5017439;28;20203;-39
2021/03/07 13:07:57;;;;;;;5.87;3.20;;;;;;;;;;5003579;28;20246;-37
2021/03/07 13:10:44;;;;;;;2.33;1.97;;;;;;;;;;4999792;28;20317;-37
2021/03/07 13:13:30;;;;;;;2.70;2.50;;;;;;;;;;5008771;28;20306;-38
2021/03/07 13:16:18;;;;;;;1.73;1.63;;;;;;;;;;5010702;28;20484;-41
2021/03/07 13:19:06;;;;;;;2.43;2.20;;;;;;;;;;5016206;28;20194;-36
2021/03/07 13:21:52;;;;;;;2.67;1.80;;;;;;;;;;5018819;28;20205;-38
2021/03/07 13:24:42;;;;;;;1.97;1.87;;;;;;;;;;5018838;28;20631;-39
2021/03/07 13:27:29;;;;;;;3.07;2.53;;;;;;;;;;5012517;28;20288;-38
2021/03/07 13:30:16;;;;;;;3.80;3.17;;;;;;;;;;4999065;28;20469;-36
2021/03/07 13:33:03;;;;;;;4.93;3.23;;;;;;;;;;5009164;28;20213;-35
2021/03/07 13:35:49;;;;;;;2.13;1.93;;;;;;;;;;5018280;28;20206;-39
2021/03/07 13:38:38;;;;;;;3.43;2.90;;;;;;;;;;5011261;28;20518;-39
2021/03/07 13:41:24;;;;;;;3.40;2.67;;;;;;;;;;4998527;28;20616;-38
2021/03/07 13:44:11;;;;;;;3.97;2.03;;;;;;;;;;4998630;28;20199;-38
2021/03/07 13:46:57;;;;;;;3.43;2.80;;;;;;;;;;5002624;28;20310;-37
2021/03/07 13:49:44;;;;;;;3.37;2.10;;;;;;;;;;5006242;28;20290;-40
2021/03/07 13:52:29;;;;;;;3.20;2.40;;;;;;;;;;5012348;28;20492;-37
2021/03/07 13:55:15;;;;;;;2.73;2.53;;;;;;;;;;4998956;28;20213;-36
2021/03/07 13:58:01;;;;;;;2.97;2.30;;;;;;;;;;5002061;28;20757;-36
2021/03/07 14:00:48;;;;;;;4.37;2.20;;;;;;;;;;5007102;28;20209;-38
2021/03/07 14:03:36;;;;;;;3.03;2.50;;;;;;;;;;5017298;28;20280;-36
2021/03/07 14:06:24;;;;;;;3.60;2.50;;;;;;;;;;5017611;28;20207;-40
2021/03/07 14:09:10;;;;;;;3.20;2.23;;;;;;;;;;5001217;28;20248;-36
2021/03/07 14:11:56;;;;;;;3.27;2.97;;;;;;;;;;5005426;28;20219;-39
2021/03/07 14:14:46;;;;;;;2.80;2.33;;;;;;;;;;5014943;28;20211;-36
2021/03/07 14:17:33;;;;;;;3.17;2.57;;;;;;;;;;5017704;28;20230;-39
2021/03/07 14:20:21;;;;;;;3.70;2.60;;;;;;;;;;5017401;28;20219;-39
2021/03/07 14:23:11;;;;;;;2.93;1.83;;;;;;;;;;5012522;28;20203;-38
2021/03/07 14:25:59;;;;;;;2.27;2.10;;;;;;;;;;5003262;28;20203;-39
2021/03/07 14:28:44;;;;;;;2.47;2.23;;;;;;;;;;5009370;28;20322;-39
2021/03/07 14:31:30;;;;;;;2.00;1.90;;;;;;;;;;5009879;28;20657;-37
2021/03/07 14:34:18;;;;;;;3.30;2.40;;;;;;;;;;5017169;28;20353;-38
2021/03/07 14:37:03;;;;;;;2.37;2.17;;;;;;;;;;5017582;28;20221;-39
2021/03/07 14:39:52;;;;;;;3.67;2.37;;;;;;;;;;5013334;28;20199;-38
2021/03/07 14:42:38;;;;;;;2.67;2.47;;;;;;;;;;5017113;28;20210;-36
2021/03/07 14:45:24;;;;;;;2.67;2.00;;;;;;;;;;5017606;28;20617;-36
2021/03/07 14:48:16;;;;;;;2.77;2.57;;;;;;;;;;5017368;28;20217;-40
2021/03/07 14:51:03;;;;;;;2.60;2.40;;;;;;;;;;5017537;28;20197;-38
2021/03/07 14:53:50;;;;;;;2.73;1.87;;;;;;;;;;5017377;28;20203;-42
2021/03/07 14:56:35;;;;;;;2.37;2.17;;;;;;;;;;5017717;28;20601;-40
2021/03/07 14:59:21;;;;;;;3.50;2.90;;;;;;;;;;5017149;28;20618;-38
2021/03/07 15:02:07;;;;;;;2.80;2.50;;;;;;;;;;5016238;28;20491;-37
2021/03/07 15:04:56;;;;;;;4.03;2.17;;;;;;;;;;5017033;28;20345;-37
2021/03/07 15:07:46;;;;;;;4.47;2.53;;;;;;;;;;5017348;28;20581;-38
2021/03/07 15:10:32;;;;;;;3.30;2.73;;;;;;;;;;5017379;28;20270;-36
2021/03/07 15:13:20;;;;;;;2.63;2.43;;;;;;;;;;5017357;28;20233;-36
2021/03/07 15:16:06;;;;;;;3.27;2.33;;;;;;;;;;5015786;28;20202;-41
2021/03/07 15:18:53;;;;;;;6.90;2.50;;;;;;;;;;5015395;28;20349;-40
2021/03/07 15:21:38;;;;;;;2.53;2.33;;;;;;;;;;5016883;28;20608;-37
2021/03/07 15:24:32;;;;;;;3.03;2.30;;;;;;;;;;5016938;28;20194;-40
2021/03/07 15:27:18;;;;;;;4.93;2.70;;;;;;;;;;5017023;28;20198;-37
2021/03/07 15:30:10;;;;;;;3.83;2.83;;;;;;;;;;5017114;28;20616;-37
2021/03/07 15:32:58;;;;;;;3.13;2.50;;;;;;;;;;5020756;28;20205;-39
2021/03/07 15:35:44;;;;;;;3.60;2.47;;;;;;;;;;5016491;28;20213;-40
2021/03/07 15:38:31;;;;;;;2.77;2.20;;;;;;;;;;5016440;28;20222;-37
2021/03/07 15:41:20;;;;;;;2.67;2.47;;;;;;;;;;5016931;28;20201;-37
2021/03/07 15:44:09;;;;;;;3.73;2.17;;;;;;;;;;5020487;28;20201;-41
2021/03/07 15:46:56;;;;;;;2.67;2.30;;;;;;;;;;5016425;28;20217;-40
2021/03/07 15:49:42;;;;;;;7.90;3.90;;;;;;;;;;5016557;28;20280;-42
2021/03/07 15:52:31;;;;;;;6.33;4.27;;;;;;;;;;5016426;28;20261;-38
2021/03/07 15:55:17;;;;;;;4.07;3.50;;;;;;;;;;5020179;28;20213;-38
2021/03/07 15:58:04;;;;;;;5.33;3.40;;;;;;;;;;5032219;28;20229;-37
2021/03/07 16:00:52;;;;;;;4.90;2.60;;;;;;;;;;5036181;28;20638;-39
2021/03/07 16:03:39;;;;;;;5.10;3.13;;;;;;;;;;4996076;28;20203;-42
2021/03/07 16:06:25;;;;;;;4.90;3.70;;;;;;;;;;5002065;28;20308;-39
2021/03/07 16:09:14;;;;;;;4.47;2.83;;;;;;;;;;5030338;28;20212;-39
2021/03/07 16:12:03;;;;;;;3.63;3.13;;;;;;;;;;5036040;28;20201;-40
2021/03/07 16:14:55;;;;;;;5.07;3.10;;;;;;;;;;5036088;28;20642;-43
2021/03/07 16:17:45;;;;;;;4.50;3.40;;;;;;;;;;5023193;28;20641;-42
2021/03/07 16:20:32;;;;;;;4.63;4.23;;;;;;;;;;5017254;28;20193;-41
2021/03/07 16:23:25;;;;;;;4.67;3.67;;;;;;;;;;5022636;28;20615;-43
2021/03/07 16:26:11;;;;;;;4.10;2.80;;;;;;;;;;5021230;28;20214;-35
2021/03/07 16:29:01;;;;;;;3.33;2.90;;;;;;;;;;5019836;28;20198;-40